Time;durP1;ratioP1;P1;durP2;ratioP2;P2;SDS_P1;SDS_P2;PMS_P1;PMS_P2;Temp;Humidity;BMP_temperature;BMP_pressure;BME280_temperature;BME280_humidity;BME280_pressure;Samples;Min_cycle;Max_cycle;Signal;HPM_P1;HPM_P2
2023/09/18 00:03:46;;;;;;;7.40;4.00;;;;;;;21.00;50.66;99145.63;10330365;28;20248;-37
2023/09/18 00:08:50;;;;;;;8.70;4.43;;;;;;;19.85;53.77;99088.38;10336887;28;20622;-35
2023/09/18 00:13:52;;;;;;;6.65;4.22;;;;;;;20.02;53.90;99060.22;10341043;28;20237;-34
2023/09/18 00:18:54;;;;;;;6.57;3.65;;;;;;;20.22;53.41;99068.47;10339359;28;20231;-35
2023/09/18 00:23:57;;;;;;;5.30;3.75;;;;;;;20.07;53.66;99058.34;10340463;28;20256;-35
2023/09/18 00:28:59;;;;;;;8.43;4.07;;;;;;;20.28;53.93;99050.31;10340202;28;20698;-36
2023/09/18 00:34:01;;;;;;;7.68;3.95;;;;;;;22.02;49.38;99063.09;10333908;28;20807;-37
2023/09/18 00:39:03;;;;;;;9.18;3.90;;;;;;;21.65;49.84;99107.03;10334523;28;20226;-36
2023/09/18 00:44:05;;;;;;;5.78;3.40;;;;;;;21.92;49.63;99098.53;10335199;28;20236;-36
2023/09/18 00:49:07;;;;;;;6.30;3.80;;;;;;;23.14;47.65;99046.38;10334217;28;20240;-36
2023/09/18 00:54:10;;;;;;;6.55;3.63;;;;;;;23.07;47.69;99063.06;10338983;28;20240;-35
2023/09/18 00:59:13;;;;;;;9.10;3.60;;;;;;;23.48;46.75;99072.78;10335144;28;20758;-35
2023/09/18 01:04:16;;;;;;;6.32;3.53;;;;;;;22.58;48.97;99094.75;10333536;28;20233;-36
2023/09/18 01:09:19;;;;;;;8.40;3.40;;;;;;;22.02;49.77;99117.59;10339942;28;20233;-36
2023/09/18 01:14:30;;;;;;;6.38;3.88;;;;;;;21.47;50.97;99102.97;10338555;28;20699;-36
2023/09/18 01:19:45;;;;;;;5.43;3.95;;;;;;;22.14;49.82;99077.22;10323875;28;20249;-36
2023/09/18 01:24:48;;;;;;;6.72;3.20;;;;;;;21.40;50.35;99144.88;10337857;28;20340;-35
2023/09/18 01:29:50;;;;;;;9.32;4.50;;;;;;;19.35;54.70;99116.78;10339337;28;20237;-35
2023/09/18 01:34:55;;;;;;;7.07;4.00;;;;;;;20.19;52.88;99128.75;10340200;28;20677;-35
2023/09/18 01:39:59;;;;;;;7.18;3.78;;;;;;;19.87;54.81;99115.28;10337851;28;20229;-35
2023/09/18 01:45:02;;;;;;;5.45;3.72;;;;;;;21.59;50.00;99163.38;10342906;28;20229;-35
2023/09/18 01:50:05;;;;;;;8.48;3.97;;;;;;;21.36;50.77;99153.88;10339197;28;20289;-35
2023/09/18 01:55:07;;;;;;;5.93;4.05;;;;;;;21.65;50.39;99167.72;10340869;28;20387;-35
2023/09/18 02:00:10;;;;;;;9.35;3.90;;;;;;;20.47;53.36;99235.41;10345206;28;20237;-36
2023/09/18 02:05:13;;;;;;;4.55;3.40;;;;;;;21.21;52.87;99141.84;10341271;28;20320;-35
2023/09/18 02:10:15;;;;;;;6.43;3.47;;;;;;;20.64;54.33;99142.81;10345439;28;20320;-35
2023/09/18 02:15:17;;;;;;;7.53;3.85;;;;;;;21.48;52.17;99115.50;10340546;28;20848;-35
2023/09/18 02:20:18;;;;;;;6.78;3.42;;;;;;;21.54;52.76;99084.44;10340447;28;20711;-35
2023/09/18 02:25:20;;;;;;;10.98;4.10;;;;;;;20.21;55.57;99156.50;10337985;28;20312;-35
2023/09/18 02:30:22;;;;;;;5.97;3.75;;;;;;;19.54;58.12;99098.22;10338723;28;20225;-35
2023/09/18 02:35:24;;;;;;;6.30;3.88;;;;;;;19.10;58.75;99111.97;10338959;28;20225;-35
2023/09/18 02:40:26;;;;;;;7.47;4.22;;;;;;;20.08;56.74;99089.06;10337662;28;20259;-35
2023/09/18 02:45:28;;;;;;;5.60;3.90;;;;;;;21.31;54.07;99036.84;10343996;28;20240;-35
2023/09/18 02:50:29;;;;;;;6.63;3.92;;;;;;;21.48;53.23;99082.84;10338391;28;20244;-35
2023/09/18 02:55:31;;;;;;;6.90;3.55;;;;;;;21.76;52.98;99071.34;10340354;28;20248;-35
2023/09/18 03:00:33;;;;;;;8.20;3.97;;;;;;;21.39;52.82;99137.81;10336127;28;20230;-35
2023/09/18 03:05:44;;;;;;;6.05;3.67;;;;;;;19.51;57.42;99172.00;10325672;28;20237;-36
2023/09/18 03:10:46;;;;;;;8.55;3.92;;;;;;;20.19;55.73;99207.53;10335800;28;20885;-36
2023/09/18 03:15:48;;;;;;;8.85;4.13;;;;;;;19.56;57.60;99235.28;10323629;28;20667;-36
2023/09/18 03:20:50;;;;;;;4.45;3.30;;;;;;;18.94;59.17;99260.91;10342916;28;20375;-36
2023/09/18 03:25:52;;;;;;;7.38;4.10;;;;;;;18.59;60.64;99239.56;10336844;28;20229;-36
2023/09/18 03:30:54;;;;;;;8.63;4.07;;;;;;;17.83;63.91;99188.66;10333895;28;20230;-36
2023/09/18 03:35:58;;;;;;;9.60;4.72;;;;;;;17.99;63.52;99179.69;10336046;28;20217;-36
2023/09/18 03:41:01;;;;;;;9.07;4.05;;;;;;;18.01;63.90;99169.44;10339030;28;20240;-36
2023/09/18 03:46:06;;;;;;;8.48;3.58;;;;;;;17.86;65.17;99123.22;10340379;28;20237;-36
2023/09/18 03:51:09;;;;;;;12.32;4.43;;;;;;;18.16;63.70;99119.28;10362403;28;20299;-36
2023/09/18 03:56:11;;;;;;;7.30;3.28;;;;;;;18.06;63.24;99119.97;10353371;28;20240;-35
2023/09/18 04:01:13;;;;;;;5.60;3.20;;;;;;;18.84;61.67;99008.69;10349784;28;20695;-36
2023/09/18 04:06:15;;;;;;;7.18;3.58;;;;;;;18.45;61.92;99025.13;10338875;28;20260;-36
2023/09/18 04:11:19;;;;;;;9.55;2.85;;;;;;;18.35;61.62;99036.69;10344249;28;20225;-36
2023/09/18 04:16:21;;;;;;;7.90;3.65;;;;;;;18.80;60.87;99024.66;10339537;28;20350;-36
2023/09/18 04:21:23;;;;;;;5.35;2.80;;;;;;;19.11;59.65;99014.09;10335971;28;20237;-36
2023/09/18 04:26:33;;;;;;;4.43;2.80;;;;;;;19.36;59.62;98997.16;10342153;28;20249;-36
2023/09/18 04:31:35;;;;;;;7.95;3.58;;;;;;;19.58;59.06;99018.75;10351043;28;20238;-37
2023/09/18 04:36:37;;;;;;;10.65;3.10;;;;;;;19.58;58.25;99081.16;10343667;28;20233;-35
2023/09/18 04:41:39;;;;;;;8.30;4.13;;;;;;;20.77;56.38;99024.63;10343680;28;20252;-37
2023/09/18 04:46:42;;;;;;;10.43;3.58;;;;;;;20.31;57.42;99022.59;10341362;28;20226;-35
2023/09/18 04:51:44;;;;;;;6.88;3.00;;;;;;;20.25;57.34;99029.94;10340103;28;20244;-36
2023/09/18 04:56:46;;;;;;;9.88;3.30;;;;;;;20.00;57.20;99089.56;10344590;28;20232;-35
2023/09/18 05:01:48;;;;;;;8.98;3.55;;;;;;;18.32;61.87;99129.28;10343958;28;20249;-37
2023/09/18 05:06:50;;;;;;;9.10;3.60;;;;;;;17.58;64.17;99103.31;10338649;28;20233;-37
2023/09/18 05:11:52;;;;;;;5.38;3.65;;;;;;;19.26;58.81;99112.91;10343495;28;20233;-37
2023/09/18 05:16:53;;;;;;;9.30;3.90;;;;;;;18.97;60.83;99086.91;10334476;28;20226;-35
2023/09/18 05:21:55;;;;;;;9.60;3.58;;;;;;;19.47;59.50;99068.59;10341485;28;20976;-35
2023/09/18 05:26:57;;;;;;;8.02;3.28;;;;;;;20.28;58.31;99050.31;10342259;28;20749;-35
2023/09/18 05:31:59;;;;;;;5.40;3.42;;;;;;;19.94;58.60;99075.97;10339804;28;20237;-35
2023/09/18 05:37:00;;;;;;;6.40;3.30;;;;;;;21.30;55.29;99060.50;10338856;28;20237;-36
2023/09/18 05:42:03;;;;;;;6.75;3.42;;;;;;;20.05;57.84;99106.69;10337908;28;20232;-35
2023/09/18 05:47:05;;;;;;;7.63;2.90;;;;;;;19.90;58.07;99106.59;10343369;28;20601;-35
2023/09/18 05:52:07;;;;;;;6.35;3.05;;;;;;;19.59;59.27;99109.13;10370110;22;20407;-36
2023/09/18 05:57:09;;;;;;;4.90;2.75;;;;;;;20.57;56.44;99085.97;10356147;28;20237;-37
2023/09/18 06:02:11;;;;;;;7.78;2.75;;;;;;;19.31;59.48;99159.06;10348581;28;20252;-37
2023/09/18 06:07:17;;;;;;;10.98;3.22;;;;;;;19.32;59.79;99144.44;10337820;28;20458;-37
2023/09/18 06:12:20;;;;;;;9.00;2.97;;;;;;;19.72;58.69;99127.69;10353753;28;20225;-37
2023/09/18 06:17:24;;;;;;;6.20;2.70;;;;;;;19.53;58.69;99143.50;10356893;28;20718;-37
2023/09/18 06:22:26;;;;;;;7.57;2.58;;;;;;;19.30;59.34;99165.56;10355468;28;20244;-37
2023/09/18 06:27:27;;;;;;;6.25;2.70;;;;;;;19.97;57.50;99128.09;10354289;28;20244;-37
2023/09/18 06:32:29;;;;;;;4.78;2.80;;;;;;;19.43;58.56;99159.72;10356172;28;20233;-37
2023/09/18 06:37:31;;;;;;;7.55;2.78;;;;;;;19.48;58.20;99192.31;10356348;28;20331;-36
2023/09/18 06:42:33;;;;;;;4.55;2.30;;;;;;;19.87;57.44;99170.41;10351946;28;20245;-35
2023/09/18 06:47:35;;;;;;;4.05;2.40;;;;;;;19.12;59.60;99186.56;10353048;28;20690;-35
2023/09/18 06:52:37;;;;;;;4.30;2.00;;;;;;;19.65;58.21;99186.78;10356116;28;20241;-36
2023/09/18 06:57:40;;;;;;;2.47;1.98;;;;;;;18.51;60.79;99221.03;10355491;28;20752;-36
2023/09/18 07:02:42;;;;;;;4.40;1.88;;;;;;;18.71;59.73;99225.91;10350895;28;20237;-36
2023/09/18 07:07:46;;;;;;;4.70;2.33;;;;;;;19.08;58.78;99207.13;10352655;28;20759;-36
2023/09/18 07:12:48;;;;;;;5.30;2.00;;;;;;;19.13;58.58;99185.50;10349502;28;20699;-36
2023/09/18 07:17:50;;;;;;;2.78;1.60;;;;;;;18.91;57.92;99238.88;10355125;28;20255;-36
2023/09/18 07:22:52;;;;;;;1.80;1.33;;;;;;;19.14;58.18;99216.13;10346803;28;20233;-36
2023/09/18 07:27:53;;;;;;;3.22;1.83;;;;;;;18.91;57.95;99231.59;10361135;28;20237;-36
2023/09/18 07:32:58;;;;;;;2.97;1.50;;;;;;;19.68;56.66;99226.16;10362994;28;21347;-35
2023/09/18 07:38:00;;;;;;;2.38;1.60;;;;;;;20.17;56.21;99181.72;10361291;28;20272;-36
2023/09/18 07:43:02;;;;;;;3.30;1.40;;;;;;;19.65;57.00;99215.81;10362000;28;20233;-35
2023/09/18 07:48:04;;;;;;;1.92;1.40;;;;;;;19.08;57.36;99264.09;10361097;28;20332;-35
2023/09/18 07:53:06;;;;;;;3.05;1.27;;;;;;;18.23;59.48;99271.56;10359552;28;20237;-36
2023/09/18 07:58:08;;;;;;;1.95;1.40;;;;;;;19.20;57.66;99210.50;10360925;28;20237;-36
2023/09/18 08:03:10;;;;;;;3.40;1.30;;;;;;;18.96;57.81;99223.56;10310820;28;20236;-36
2023/09/18 08:08:13;;;;;;;3.70;1.40;;;;;;;18.62;59.06;99195.72;10295941;28;20383;-36
2023/09/18 08:13:15;;;;;;;2.15;1.67;;;;;;;19.65;56.67;99172.41;10356347;28;20229;-36
2023/09/18 08:18:17;;;;;;;3.22;1.80;;;;;;;18.97;56.92;99237.91;10357425;28;20304;-36
2023/09/18 08:23:19;;;;;;;3.42;1.42;;;;;;;19.28;57.49;99165.84;10340671;28;20703;-36
2023/09/18 08:28:21;;;;;;;5.53;1.80;;;;;;;18.90;58.47;99183.88;10356234;28;20607;-37
2023/09/18 08:33:23;;;;;;;3.63;1.80;;;;;;;18.44;58.41;99222.06;10357722;28;20239;-36
2023/09/18 08:38:25;;;;;;;4.05;1.80;;;;;;;19.66;56.49;99138.75;10355747;28;20205;-36
2023/09/18 08:43:29;;;;;;;6.28;1.75;;;;;;;18.34;58.67;99235.47;10351471;28;20229;-36
2023/09/18 08:48:34;;;;;;;2.72;1.75;;;;;;;18.09;59.21;99249.44;10359047;28;20715;-36
2023/09/18 08:53:37;;;;;;;2.55;2.03;;;;;;;19.67;56.17;99200.09;10354649;28;20808;-36
2023/09/18 08:58:42;;;;;;;3.33;1.67;;;;;;;18.87;57.95;99232.34;10353171;28;20260;-36
2023/09/18 09:03:45;;;;;;;3.78;2.20;;;;;;;19.62;56.47;99208.19;10350728;28;20268;-36
2023/09/18 09:08:47;;;;;;;2.67;1.80;;;;;;;19.81;56.60;99195.88;10354252;28;20244;-35
2023/09/18 09:14:11;;;;;;;4.47;1.52;;;;;;;19.56;57.38;99199.19;10349172;28;20263;-36
2023/09/18 09:19:13;;;;;;;5.03;1.92;;;;;;;19.58;56.98;99207.88;10337946;28;20309;-36
2023/09/18 09:24:15;;;;;;;2.03;1.10;;;;;;;18.24;59.53;99243.44;10354101;28;20237;-36
2023/09/18 09:29:22;;;;;;;5.05;1.50;;;;;;;18.48;57.50;99262.19;10351791;28;20241;-36
2023/09/18 09:34:26;;;;;;;4.43;1.70;;;;;;;18.69;56.87;99283.06;10352108;28;20291;-35
2023/09/18 09:39:30;;;;;;;2.28;1.40;;;;;;;18.86;56.75;99279.50;10353342;28;20233;-36
2023/09/18 09:44:32;;;;;;;3.08;1.73;;;;;;;19.97;54.47;99225.84;10352007;28;20437;-37
2023/09/18 09:49:45;;;;;;;1.73;1.30;;;;;;;19.33;56.13;99222.00;10354554;28;20230;-36
2023/09/18 09:54:47;;;;;;;4.97;1.50;;;;;;;19.71;55.33;99212.06;10349510;28;20229;-36
2023/09/18 09:59:49;;;;;;;3.65;1.85;;;;;;;18.93;56.20;99261.16;10352005;28;20205;-36
2023/09/18 10:04:51;;;;;;;2.58;1.70;;;;;;;19.52;55.67;99225.19;10352317;28;20236;-36
2023/09/18 10:09:53;;;;;;;2.17;1.42;;;;;;;19.43;55.72;99227.53;10335614;28;20726;-36
2023/09/18 10:14:56;;;;;;;1.73;1.40;;;;;;;19.13;55.24;99293.13;10353011;28;20608;-36
2023/09/18 10:20:20;;;;;;;2.25;1.30;;;;;;;20.36;53.69;99184.81;10351483;28;20216;-36
2023/09/18 10:25:28;;;;;;;2.65;1.60;;;;;;;18.79;55.36;99304.06;10351233;28;20452;-36
2023/09/18 10:30:34;;;;;;;3.53;1.52;;;;;;;20.41;53.14;99188.38;10351990;28;20239;-36
2023/09/18 10:35:37;;;;;;;3.63;1.52;;;;;;;19.92;53.73;99248.34;10351980;28;20719;-37
2023/09/18 10:40:40;;;;;;;2.17;1.73;;;;;;;18.62;56.06;99280.56;10351177;28;20659;-36
2023/09/18 10:45:44;;;;;;;3.03;1.48;;;;;;;20.71;52.47;99186.03;10349533;28;20232;-36
2023/09/18 10:50:46;;;;;;;2.05;1.38;;;;;;;20.36;52.77;99242.69;10351886;28;20230;-37
2023/09/18 10:55:48;;;;;;;2.47;1.30;;;;;;;20.15;53.10;99255.28;10349010;28;20225;-36
2023/09/18 11:06:21;;;;;;;2.60;1.33;;;;;;;18.62;56.22;99269.72;10489016;27;20813;-72
2023/09/18 11:11:25;;;;;;;2.05;1.27;;;;;;;19.50;54.56;99235.47;10413113;28;20843;-73
2023/09/18 11:16:27;;;;;;;1.48;1.23;;;;;;;18.87;55.56;99265.69;10414390;28;20232;-72
2023/09/18 11:21:31;;;;;;;1.48;1.20;;;;;;;19.26;54.48;99256.66;10414049;28;20237;-72
2023/09/18 11:26:35;;;;;;;4.05;1.60;;;;;;;19.81;54.29;99214.06;10420604;28;20266;-75
2023/09/18 11:31:47;;;;;;;2.47;1.73;;;;;;;19.93;53.28;99258.13;10413716;28;20649;-73
2023/09/18 11:36:50;;;;;;;3.00;1.85;;;;;;;19.62;54.40;99257.88;10413702;28;20653;-73
2023/09/18 11:42:21;;;;;;;1.65;1.40;;;;;;;19.80;53.49;99250.41;10413432;28;20224;-72
2023/09/18 11:47:24;;;;;;;2.00;1.40;;;;;;;20.75;52.38;99198.00;10410515;28;20451;-73
2023/09/18 11:52:29;;;;;;;2.42;1.35;;;;;;;20.72;52.69;99209.44;10410790;28;20229;-72
2023/09/18 11:57:35;;;;;;;2.45;1.30;;;;;;;20.66;52.33;99212.09;10418909;28;20323;-72
2023/09/18 12:02:41;;;;;;;2.40;1.40;;;;;;;20.75;52.12;99236.91;10418559;28;20236;-72
2023/09/18 12:07:47;;;;;;;2.55;1.50;;;;;;;20.75;51.62;99209.72;10414334;28;20228;-72
2023/09/18 12:12:49;;;;;;;1.40;1.20;;;;;;;21.16;50.79;99211.78;10412829;28;20224;-72
2023/09/18 12:17:55;;;;;;;2.45;1.48;;;;;;;19.94;52.40;99278.78;10385657;28;20229;-73
2023/09/18 12:22:57;;;;;;;1.63;1.35;;;;;;;21.14;50.26;99224.78;10390342;28;22520;-73
2023/09/18 12:28:00;;;;;;;1.30;1.00;;;;;;;20.30;52.55;99266.28;10384630;28;20316;-73
2023/09/18 12:33:03;;;;;;;2.17;1.58;;;;;;;21.46;50.09;99202.03;10380868;28;20225;-73
2023/09/18 12:38:14;;;;;;;3.25;1.77;;;;;;;21.07;51.19;99240.56;10384146;28;20260;-73
2023/09/18 12:43:17;;;;;;;1.63;1.38;;;;;;;20.86;51.14;99259.53;10346679;28;20320;-73
2023/09/18 12:48:19;;;;;;;1.42;1.20;;;;;;;21.00;49.91;99255.25;10422883;28;20406;-74
2023/09/18 12:53:22;;;;;;;3.55;1.30;;;;;;;21.24;49.89;99197.63;10425664;28;20220;-73
2023/09/18 12:58:24;;;;;;;4.25;1.60;;;;;;;21.74;49.02;99225.16;10426148;28;20216;-74
2023/09/18 13:03:27;;;;;;;1.20;1.08;;;;;;;20.81;50.03;99282.06;10423591;28;20241;-73
2023/09/18 13:08:29;;;;;;;2.47;1.52;;;;;;;20.84;50.68;99261.72;10429336;28;20240;-74
2023/09/18 13:13:30;;;;;;;3.35;1.58;;;;;;;21.34;50.00;99215.84;10425824;28;20244;-73
2023/09/18 13:18:32;;;;;;;3.03;1.45;;;;;;;21.13;49.59;99234.06;10424413;28;20244;-73
2023/09/18 13:23:34;;;;;;;3.13;1.50;;;;;;;21.49;49.48;99215.94;10428608;28;20798;-73
2023/09/18 13:28:36;;;;;;;4.45;1.50;;;;;;;21.31;50.20;99211.78;10424732;28;20248;-74
2023/09/18 13:33:44;;;;;;;2.20;1.30;;;;;;;22.10;48.11;99176.94;10421626;28;20273;-73
2023/09/18 13:38:46;;;;;;;2.28;1.58;;;;;;;21.30;49.59;99203.88;10422787;28;20306;-73
2023/09/18 13:43:49;;;;;;;1.50;1.40;;;;;;;21.78;49.02;99190.88;10419182;28;20232;-73
2023/09/18 13:48:50;;;;;;;3.10;1.40;;;;;;;21.50;49.74;99148.69;10422853;28;20223;-73
2023/09/18 13:53:52;;;;;;;2.92;1.30;;;;;;;21.14;50.17;99197.59;10418544;28;20235;-73
2023/09/18 13:58:55;;;;;;;1.33;1.20;;;;;;;22.95;47.50;99111.69;10417759;28;20322;-73
2023/09/18 14:03:57;;;;;;;1.80;1.23;;;;;;;22.91;47.25;99100.53;10426955;28;20370;-71
2023/09/18 14:08:59;;;;;;;2.97;1.60;;;;;;;22.87;46.86;99137.66;10429277;28;20838;-70
2023/09/18 14:14:00;;;;;;;3.05;1.40;;;;;;;22.70;47.31;99124.38;10428117;28;20235;-72
2023/09/18 14:19:02;;;;;;;2.47;1.45;;;;;;;22.38;47.43;99146.59;10426741;28;20234;-71
2023/09/18 14:24:04;;;;;;;1.92;1.60;;;;;;;20.33;50.07;99177.19;10418902;28;20244;-73
2023/09/18 14:29:09;;;;;;;3.90;1.30;;;;;;;22.08;47.19;99102.88;10419933;28;20392;-73
2023/09/18 14:34:11;;;;;;;1.85;1.40;;;;;;;21.27;47.88;99150.81;10417249;28;22205;-73
2023/09/18 14:39:13;;;;;;;2.45;1.20;;;;;;;22.41;46.71;99086.09;10414723;28;20228;-74
2023/09/18 14:44:15;;;;;;;3.20;2.10;;;;;;;22.32;46.93;99113.13;10414787;28;20227;-73
2023/09/18 14:49:16;;;;;;;3.17;1.52;;;;;;;21.47;47.56;99144.59;10416725;28;20301;-73
2023/09/18 14:54:18;;;;;;;2.65;1.30;;;;;;;22.09;46.51;99096.31;10418215;28;20309;-74
2023/09/18 15:05:34;;;;;;;1.40;1.20;;;;;;;20.60;48.84;99047.41;10648597;27;24569;-74
2023/09/18 15:10:36;;;;;;;2.05;1.48;;;;;;;20.41;49.62;99057.97;10582354;27;20650;-72
2023/09/18 15:15:37;;;;;;;2.63;1.30;;;;;;;20.37;49.42;99037.03;10555059;27;20222;-73
2023/09/18 15:20:40;;;;;;;1.40;1.00;;;;;;;20.83;48.69;99034.41;10550981;27;20361;-73
2023/09/18 15:25:43;;;;;;;1.95;1.20;;;;;;;20.81;48.96;99042.00;10551616;27;20227;-72
2023/09/18 15:30:45;;;;;;;2.53;1.50;;;;;;;20.43;49.16;99034.06;10546990;28;20314;-71
2023/09/18 15:35:50;;;;;;;1.20;1.10;;;;;;;20.94;48.50;99000.69;10548695;28;20225;-70
2023/09/18 15:40:52;;;;;;;1.88;1.40;;;;;;;20.99;48.48;99041.47;10549658;27;20222;-70
2023/09/18 15:45:57;;;;;;;2.03;1.42;;;;;;;21.30;47.89;99054.25;10549635;27;20722;-71
2023/09/18 15:50:59;;;;;;;2.33;1.30;;;;;;;20.63;48.28;99125.69;10551377;27;20291;-71
2023/09/18 15:56:00;;;;;;;1.30;1.20;;;;;;;22.22;47.37;99001.44;10550266;27;20313;-72
2023/09/18 16:01:04;;;;;;;2.25;1.55;;;;;;;21.04;48.63;99019.72;10547973;28;20712;-72
2023/09/18 16:06:17;;;;;;;2.03;1.35;;;;;;;21.97;47.58;99012.19;10548276;28;20308;-70
2023/09/18 16:11:19;;;;;;;3.55;1.40;;;;;;;20.44;49.60;99106.31;10545169;27;20226;-76
2023/09/18 16:16:21;;;;;;;2.53;1.30;;;;;;;21.68;48.13;99008.44;10522884;28;20260;-73
2023/09/18 16:21:23;;;;;;;3.17;1.30;;;;;;;21.29;48.22;99056.16;10520437;28;20231;-72
2023/09/18 16:26:25;;;;;;;1.55;1.30;;;;;;;21.32;48.81;99017.50;10517055;28;20330;-74
2023/09/18 16:31:28;;;;;;;1.50;1.40;;;;;;;21.74;47.73;99008.16;10518140;28;20671;-76
2023/09/18 16:36:30;;;;;;;4.07;1.30;;;;;;;21.36;48.41;99059.44;10519475;28;20225;-74
2023/09/18 16:41:32;;;;;;;1.98;1.50;;;;;;;21.51;48.36;99014.22;10520364;28;20237;-73
2023/09/18 16:46:35;;;;;;;2.40;1.70;;;;;;;21.33;48.82;99012.88;10521138;28;20703;-74
2023/09/18 16:51:37;;;;;;;4.55;1.50;;;;;;;21.28;48.79;99070.03;10518907;28;20222;-73
2023/09/18 16:56:39;;;;;;;5.63;2.30;;;;;;;16.02;65.17;99191.63;10520930;28;20223;-74
2023/09/18 17:01:41;;;;;;;5.53;2.17;;;;;;;16.88;64.97;99024.31;10519464;28;20431;-73
2023/09/18 17:06:43;;;;;;;4.88;2.13;;;;;;;16.68;63.83;99083.38;10519695;28;20263;-75
2023/09/18 17:11:44;;;;;;;4.45;1.80;;;;;;;17.44;62.30;99027.09;10517986;28;20231;-77
2023/09/18 17:16:46;;;;;;;6.35;2.20;;;;;;;17.34;62.36;99014.25;10517561;28;20364;-73
2023/09/18 17:21:48;;;;;;;3.78;1.73;;;;;;;19.84;57.35;98975.47;10515846;28;20227;-71
2023/09/18 17:26:49;;;;;;;4.93;2.05;;;;;;;20.36;55.80;99035.38;10512620;28;20229;-71
2023/09/18 17:31:51;;;;;;;5.07;1.77;;;;;;;19.74;56.96;99130.13;10518027;28;20231;-73
2023/09/18 17:36:55;;;;;;;3.13;1.80;;;;;;;20.37;55.68;99085.94;10524687;28;20238;-73
2023/09/18 17:41:57;;;;;;;2.42;1.60;;;;;;;20.13;55.47;99089.88;10522579;28;20242;-72
2023/09/18 17:46:58;;;;;;;2.85;1.60;;;;;;;18.21;59.99;99149.16;10521113;28;20739;-73
2023/09/18 17:52:05;;;;;;;2.58;1.60;;;;;;;18.30;59.98;99069.13;10515044;27;20815;-73
2023/09/18 17:57:07;;;;;;;6.03;2.20;;;;;;;16.77;64.40;99079.25;10508742;28;20611;-76
2023/09/18 18:02:09;;;;;;;2.42;1.52;;;;;;;17.05;64.06;99054.06;10498361;28;20262;-70
2023/09/18 18:07:11;;;;;;;4.43;1.75;;;;;;;17.57;61.16;99087.34;10507172;28;20254;-72
2023/09/18 18:12:13;;;;;;;3.92;1.80;;;;;;;18.97;58.22;99046.25;10510614;28;20324;-73
2023/09/18 18:17:15;;;;;;;2.65;1.90;;;;;;;19.52;56.45;99060.50;10510517;28;20245;-71
2023/09/18 18:22:17;;;;;;;4.03;1.50;;;;;;;19.13;57.37;99090.59;10513773;28;20701;-70
2023/09/18 18:27:19;;;;;;;1.50;1.40;;;;;;;19.17;56.97;99088.19;10513661;28;20716;-70
2023/09/18 18:32:21;;;;;;;2.47;1.65;;;;;;;18.68;57.64;99143.25;10514865;28;20718;-70
2023/09/18 18:37:25;;;;;;;4.07;1.50;;;;;;;17.26;59.63;99198.53;10496403;28;20559;-70
2023/09/18 18:42:28;;;;;;;2.08;1.65;;;;;;;18.14;57.81;99218.91;10513491;28;20229;-70
2023/09/18 18:47:30;;;;;;;3.20;1.63;;;;;;;20.18;54.13;99089.13;10513710;28;20623;-71
2023/09/18 18:52:32;;;;;;;2.95;1.73;;;;;;;18.91;56.70;99147.56;10491987;28;20235;-69
2023/09/18 18:57:35;;;;;;;6.15;1.77;;;;;;;17.89;58.11;99202.03;10510703;28;20281;-71
2023/09/18 19:02:42;;;;;;;2.15;1.88;;;;;;;18.90;56.27;99159.47;10508795;28;20250;-70
2023/09/18 19:07:47;;;;;;;3.13;1.70;;;;;;;18.98;55.51;99171.78;10511420;28;20222;-69
2023/09/18 19:12:49;;;;;;;2.60;1.60;;;;;;;19.12;55.93;99186.56;10512409;28;20222;-70
2023/09/18 19:17:51;;;;;;;2.65;1.17;;;;;;;18.80;55.81;99213.56;10512271;28;20236;-69
2023/09/18 19:22:54;;;;;;;2.35;1.90;;;;;;;17.76;58.09;99264.59;10516375;28;20353;-69
2023/09/18 19:27:56;;;;;;;3.50;1.38;;;;;;;18.67;56.37;99201.22;10493055;28;20614;-68
2023/09/18 19:32:58;;;;;;;3.80;1.40;;;;;;;18.73;56.26;99205.63;10512934;28;20313;-70
2023/09/18 19:37:59;;;;;;;1.73;1.40;;;;;;;18.58;56.13;99216.28;10512922;28;20250;-71
2023/09/18 19:43:02;;;;;;;1.90;1.52;;;;;;;17.84;57.70;99260.66;10510298;28;20652;-71
2023/09/18 19:48:04;;;;;;;3.45;1.55;;;;;;;18.07;57.03;99260.50;10513701;28;20280;-69
2023/09/18 19:53:08;;;;;;;1.75;1.42;;;;;;;16.59;59.64;99305.25;10519750;28;20310;-70
2023/09/18 19:58:09;;;;;;;1.48;1.38;;;;;;;17.98;57.11;99240.31;10516303;28;20241;-70
2023/09/18 20:03:11;;;;;;;1.80;1.45;;;;;;;17.29;58.59;99249.41;10500986;28;20319;-71
2023/09/18 20:08:13;;;;;;;2.22;1.40;;;;;;;16.78;59.56;99268.09;10500369;28;20226;-70
2023/09/18 20:13:15;;;;;;;3.67;1.30;;;;;;;16.78;58.87;99276.19;10517989;28;20232;-70
2023/09/18 20:18:16;;;;;;;1.67;1.30;;;;;;;17.93;57.01;99205.03;10512476;28;20337;-70
2023/09/18 20:23:18;;;;;;;3.15;1.50;;;;;;;17.20;58.40;99206.78;10518162;28;20230;-70
2023/09/18 20:28:19;;;;;;;1.17;1.07;;;;;;;17.65;57.53;99179.75;10518629;28;20203;-69
2023/09/18 20:33:21;;;;;;;1.50;1.40;;;;;;;18.08;55.81;99202.59;10518014;22;20231;-35
2023/09/18 20:38:23;;;;;;;1.63;1.10;;;;;;;17.99;55.57;99246.56;10489421;28;20247;-35
2023/09/18 20:43:26;;;;;;;1.60;1.37;;;;;;;17.59;57.08;99242.09;10480116;28;20258;-35
2023/09/18 20:48:30;;;;;;;4.43;1.45;;;;;;;16.98;59.22;99235.31;10488499;28;20215;-35
2023/09/18 20:53:33;;;;;;;2.83;1.50;;;;;;;15.60;61.40;99321.97;10485917;28;20234;-35
2023/09/18 20:58:36;;;;;;;1.40;1.30;;;;;;;15.49;62.74;99279.59;10457483;28;20576;-35
2023/09/18 21:03:38;;;;;;;2.10;1.47;;;;;;;15.60;61.41;99335.44;10488159;28;20239;-35
2023/09/18 21:08:43;;;;;;;2.20;1.50;;;;;;;17.41;58.18;99241.25;10486655;28;20276;-35
2023/09/18 21:13:47;;;;;;;1.50;1.40;;;;;;;17.47;57.04;99282.72;10483660;28;20243;-35
2023/09/18 21:18:49;;;;;;;5.47;1.60;;;;;;;18.12;55.23;99286.00;10485841;28;20306;-35
2023/09/18 21:23:51;;;;;;;1.40;1.30;;;;;;;17.34;57.60;99298.19;10485574;28;20767;-35
2023/09/18 21:28:52;;;;;;;2.50;1.40;;;;;;;16.99;58.72;99296.41;10488889;28;20231;-35
2023/09/18 21:33:54;;;;;;;2.00;1.50;;;;;;;16.73;59.89;99261.78;10452738;28;20237;-35
2023/09/18 21:38:57;;;;;;;2.00;1.57;;;;;;;16.61;59.75;99276.13;10442902;28;20232;-35
2023/09/18 21:43:58;;;;;;;4.00;1.70;;;;;;;16.63;59.29;99289.38;10439625;28;20242;-35
2023/09/18 21:49:00;;;;;;;3.90;1.40;;;;;;;16.89;58.63;99288.06;10443891;28;20236;-35
2023/09/18 21:54:03;;;;;;;1.60;1.47;;;;;;;16.76;59.24;99299.13;10447208;28;20644;-35
2023/09/18 21:59:05;;;;;;;2.33;1.50;;;;;;;16.28;60.62;99298.34;10446964;28;20327;-35
2023/09/18 22:04:10;;;;;;;2.73;1.70;;;;;;;16.57;59.87;99298.44;10451909;28;20785;-35
2023/09/18 22:09:13;;;;;;;2.13;1.40;;;;;;;16.37;60.41;99342.00;10445439;28;20234;-35
2023/09/18 22:14:17;;;;;;;2.03;1.57;;;;;;;15.80;62.31;99340.56;10447063;28;20612;-35
2023/09/18 22:19:19;;;;;;;1.50;1.40;;;;;;;15.63;62.97;99331.50;10441632;28;20266;-34
2023/09/18 22:24:20;;;;;;;4.47;2.23;;;;;;;14.81;64.71;99388.38;10446562;28;20314;-34
2023/09/18 22:29:22;;;;;;;1.97;1.70;;;;;;;15.82;63.13;99341.16;10436320;28;20223;-35
2023/09/18 22:34:24;;;;;;;1.27;1.17;;;;;;;15.02;65.18;99382.59;10439441;28;20348;-34
2023/09/18 22:39:31;;;;;;;2.60;1.77;;;;;;;15.86;64.01;99303.78;10438596;28;20235;-34
2023/09/18 22:45:15;;;;;;;3.80;1.43;;;;;;;15.27;65.30;99365.53;10435851;28;20819;-34
2023/09/18 22:50:55;;;;;;;2.03;1.80;;;;;;;16.75;61.59;99278.56;10438110;28;20238;-34
2023/09/18 22:55:57;;;;;;;2.60;1.70;;;;;;;16.82;61.71;99276.56;10436583;28;20236;-35
2023/09/18 23:01:02;;;;;;;1.77;1.60;;;;;;;15.82;63.51;99365.44;10439634;28;20332;-35
2023/09/18 23:06:05;;;;;;;3.57;1.70;;;;;;;16.45;61.90;99314.66;10436781;28;20865;-34
2023/09/18 23:11:07;;;;;;;7.43;1.73;;;;;;;17.26;60.68;99266.13;10440289;28;20241;-35
2023/09/18 23:16:09;;;;;;;3.73;1.73;;;;;;;16.49;61.60;99375.22;10439280;28;20235;-34
2023/09/18 23:21:10;;;;;;;2.90;1.60;;;;;;;16.38;62.57;99352.59;10436253;28;20232;-34
2023/09/18 23:26:12;;;;;;;3.57;1.60;;;;;;;16.75;61.60;99346.09;10443779;28;20716;-34
2023/09/18 23:31:15;;;;;;;3.50;1.53;;;;;;;16.80;61.11;99378.63;10445868;28;20236;-34
2023/09/18 23:36:17;;;;;;;1.77;1.63;;;;;;;16.99;60.78;99374.78;10471784;22;20250;-37
2023/09/18 23:41:21;;;;;;;2.43;1.50;;;;;;;16.15;62.27;99466.69;10491473;28;20228;-38